sensor_id;sensor_type;location;lat;lon;timestamp;temperature;humidity
22682;DHT22;11508;50.856;4.380;2022-09-29T00:00:51;10.60;93.30
22682;DHT22;11508;50.856;4.380;2022-09-29T00:03:18;10.60;93.20
22682;DHT22;11508;50.856;4.380;2022-09-29T00:05:51;10.50;95.70
22682;DHT22;11508;50.856;4.380;2022-09-29T00:08:18;10.50;96.10
22682;DHT22;11508;50.856;4.380;2022-09-29T00:10:45;10.40;96.40
22682;DHT22;11508;50.856;4.380;2022-09-29T00:13:12;10.40;96.30
22682;DHT22;11508;50.856;4.380;2022-09-29T00:15:37;10.50;95.50
22682;DHT22;11508;50.856;4.380;2022-09-29T00:18:03;10.50;94.90
22682;DHT22;11508;50.856;4.380;2022-09-29T00:20:29;10.40;95.00
22682;DHT22;11508;50.856;4.380;2022-09-29T00:22:55;10.50;94.20
22682;DHT22;11508;50.856;4.380;2022-09-29T00:25:22;10.50;93.70
22682;DHT22;11508;50.856;4.380;2022-09-29T00:27:48;10.50;94.40
22682;DHT22;11508;50.856;4.380;2022-09-29T00:30:13;10.50;94.90
22682;DHT22;11508;50.856;4.380;2022-09-29T00:32:39;10.50;95.10
22682;DHT22;11508;50.856;4.380;2022-09-29T00:35:05;10.50;93.80
22682;DHT22;11508;50.856;4.380;2022-09-29T00:37:33;10.50;94.50
22682;DHT22;11508;50.856;4.380;2022-09-29T00:39:59;10.40;95.70
22682;DHT22;11508;50.856;4.380;2022-09-29T00:42:27;10.40;96.30
22682;DHT22;11508;50.856;4.380;2022-09-29T00:47:25;10.30;97.10
22682;DHT22;11508;50.856;4.380;2022-09-29T00:49:56;10.30;98.00
22682;DHT22;11508;50.856;4.380;2022-09-29T00:52:30;10.20;99.70
22682;DHT22;11508;50.856;4.380;2022-09-29T00:55:22;10.30;97.70
22682;DHT22;11508;50.856;4.380;2022-09-29T00:57:56;10.20;98.80
22682;DHT22;11508;50.856;4.380;2022-09-29T01:00:23;10.10;99.90
22682;DHT22;11508;50.856;4.380;2022-09-29T01:02:58;10.00;99.90
22682;DHT22;11508;50.856;4.380;2022-09-29T01:05:34;10.00;99.90
22682;DHT22;11508;50.856;4.380;2022-09-29T01:08:08;10.10;99.70
22682;DHT22;11508;50.856;4.380;2022-09-29T01:10:38;10.10;99.60
22682;DHT22;11508;50.856;4.380;2022-09-29T01:13:05;10.10;99.80
22682;DHT22;11508;50.856;4.380;2022-09-29T01:15:31;10.00;99.90
22682;DHT22;11508;50.856;4.380;2022-09-29T01:17:57;10.00;99.90
22682;DHT22;11508;50.856;4.380;2022-09-29T01:20:23;10.00;99.90
22682;DHT22;11508;50.856;4.380;2022-09-29T01:31:40;9.90;99.90
22682;DHT22;11508;50.856;4.380;2022-09-29T01:34:30;10.00;99.90
22682;DHT22;11508;50.856;4.380;2022-09-29T01:42:21;10.00;99.90
22682;DHT22;11508;50.856;4.380;2022-09-29T01:44:58;10.00;99.90
22682;DHT22;11508;50.856;4.380;2022-09-29T01:47:30;10.10;99.90
22682;DHT22;11508;50.856;4.380;2022-09-29T01:50:12;10.00;99.90
22682;DHT22;11508;50.856;4.380;2022-09-29T01:52:45;10.00;99.90
22682;DHT22;11508;50.856;4.380;2022-09-29T01:55:17;9.80;99.90
22682;DHT22;11508;50.856;4.380;2022-09-29T01:58:04;9.90;99.90
22682;DHT22;11508;50.856;4.380;2022-09-29T02:00:36;9.80;99.90
22682;DHT22;11508;50.856;4.380;2022-09-29T02:03:23;9.80;99.90
22682;DHT22;11508;50.856;4.380;2022-09-29T02:08:32;9.80;99.90
22682;DHT22;11508;50.856;4.380;2022-09-29T02:11:02;9.80;99.90
22682;DHT22;11508;50.856;4.380;2022-09-29T02:13:39;9.70;99.90
22682;DHT22;11508;50.856;4.380;2022-09-29T02:16:07;9.70;99.90
22682;DHT22;11508;50.856;4.380;2022-09-29T02:18:42;9.70;99.90
22682;DHT22;11508;50.856;4.380;2022-09-29T02:21:10;9.60;99.90
22682;DHT22;11508;50.856;4.380;2022-09-29T02:23:36;9.60;99.90
22682;DHT22;11508;50.856;4.380;2022-09-29T02:26:03;9.70;99.90
22682;DHT22;11508;50.856;4.380;2022-09-29T02:28:28;9.70;99.90
22682;DHT22;11508;50.856;4.380;2022-09-29T02:30:54;9.70;99.90
22682;DHT22;11508;50.856;4.380;2022-09-29T02:33:22;9.70;99.90
22682;DHT22;11508;50.856;4.380;2022-09-29T02:38:53;9.70;99.90
22682;DHT22;11508;50.856;4.380;2022-09-29T02:49:43;9.60;99.90
22682;DHT22;11508;50.856;4.380;2022-09-29T03:00:43;9.50;99.90
22682;DHT22;11508;50.856;4.380;2022-09-29T03:03:10;9.50;99.90
22682;DHT22;11508;50.856;4.380;2022-09-29T03:05:35;9.50;99.90
22682;DHT22;11508;50.856;4.380;2022-09-29T03:08:02;9.50;99.90
22682;DHT22;11508;50.856;4.380;2022-09-29T03:10:27;9.60;99.90
22682;DHT22;11508;50.856;4.380;2022-09-29T03:12:53;9.60;99.90
22682;DHT22;11508;50.856;4.380;2022-09-29T03:15:19;9.50;99.90
22682;DHT22;11508;50.856;4.380;2022-09-29T03:17:45;9.50;99.90
22682;DHT22;11508;50.856;4.380;2022-09-29T03:20:11;9.50;99.90
22682;DHT22;11508;50.856;4.380;2022-09-29T03:22:37;9.40;99.90
22682;DHT22;11508;50.856;4.380;2022-09-29T03:25:04;9.50;99.90
22682;DHT22;11508;50.856;4.380;2022-09-29T03:27:31;9.40;99.90
22682;DHT22;11508;50.856;4.380;2022-09-29T03:29:57;9.40;99.90
22682;DHT22;11508;50.856;4.380;2022-09-29T03:32:23;9.40;99.90
22682;DHT22;11508;50.856;4.380;2022-09-29T03:34:49;9.40;99.90
22682;DHT22;11508;50.856;4.380;2022-09-29T03:37:14;9.40;99.90
22682;DHT22;11508;50.856;4.380;2022-09-29T03:39:40;9.50;99.90
22682;DHT22;11508;50.856;4.380;2022-09-29T03:42:06;9.50;99.90
22682;DHT22;11508;50.856;4.380;2022-09-29T03:44:32;9.50;99.90
22682;DHT22;11508;50.856;4.380;2022-09-29T03:46:57;9.50;99.90
22682;DHT22;11508;50.856;4.380;2022-09-29T03:49:23;9.60;99.90
22682;DHT22;11508;50.856;4.380;2022-09-29T03:51:49;9.50;99.90
22682;DHT22;11508;50.856;4.380;2022-09-29T03:54:15;9.50;99.90
22682;DHT22;11508;50.856;4.380;2022-09-29T03:56:40;9.50;99.90
22682;DHT22;11508;50.856;4.380;2022-09-29T03:59:07;9.50;99.90
22682;DHT22;11508;50.856;4.380;2022-09-29T04:01:36;9.40;99.90
22682;DHT22;11508;50.856;4.380;2022-09-29T04:04:03;9.50;99.90
22682;DHT22;11508;50.856;4.380;2022-09-29T04:06:28;9.50;99.90
22682;DHT22;11508;50.856;4.380;2022-09-29T04:08:54;9.40;99.90
22682;DHT22;11508;50.856;4.380;2022-09-29T04:11:20;9.40;99.90
22682;DHT22;11508;50.856;4.380;2022-09-29T04:13:45;9.40;99.90
22682;DHT22;11508;50.856;4.380;2022-09-29T04:16:12;9.40;99.90
22682;DHT22;11508;50.856;4.380;2022-09-29T04:18:37;9.30;99.90
22682;DHT22;11508;50.856;4.380;2022-09-29T04:21:07;9.40;99.90
22682;DHT22;11508;50.856;4.380;2022-09-29T04:23:33;9.40;99.90
22682;DHT22;11508;50.856;4.380;2022-09-29T04:25:59;9.40;99.90
22682;DHT22;11508;50.856;4.380;2022-09-29T04:28:30;9.50;99.90
22682;DHT22;11508;50.856;4.380;2022-09-29T04:30:56;9.40;99.90
22682;DHT22;11508;50.856;4.380;2022-09-29T04:33:22;9.40;99.90
22682;DHT22;11508;50.856;4.380;2022-09-29T04:35:47;9.40;99.90
22682;DHT22;11508;50.856;4.380;2022-09-29T04:38:13;9.30;99.90
22682;DHT22;11508;50.856;4.380;2022-09-29T04:40:39;9.40;99.90
22682;DHT22;11508;50.856;4.380;2022-09-29T04:43:05;9.40;99.90
22682;DHT22;11508;50.856;4.380;2022-09-29T04:45:30;9.30;99.90
22682;DHT22;11508;50.856;4.380;2022-09-29T04:47:56;9.50;99.90
22682;DHT22;11508;50.856;4.380;2022-09-29T04:50:22;9.50;99.90
22682;DHT22;11508;50.856;4.380;2022-09-29T04:52:48;9.50;99.90
22682;DHT22;11508;50.856;4.380;2022-09-29T04:55:14;9.50;99.90
22682;DHT22;11508;50.856;4.380;2022-09-29T04:57:41;9.50;99.90
22682;DHT22;11508;50.856;4.380;2022-09-29T05:00:08;9.50;99.90
22682;DHT22;11508;50.856;4.380;2022-09-29T05:02:34;9.50;99.90
22682;DHT22;11508;50.856;4.380;2022-09-29T05:05:00;9.50;99.90
22682;DHT22;11508;50.856;4.380;2022-09-29T05:07:26;9.50;99.90
22682;DHT22;11508;50.856;4.380;2022-09-29T05:09:52;9.40;99.90
22682;DHT22;11508;50.856;4.380;2022-09-29T05:12:18;9.50;99.90
22682;DHT22;11508;50.856;4.380;2022-09-29T05:14:45;9.50;99.90
22682;DHT22;11508;50.856;4.380;2022-09-29T05:17:11;9.40;99.90
22682;DHT22;11508;50.856;4.380;2022-09-29T05:19:37;9.40;99.90
22682;DHT22;11508;50.856;4.380;2022-09-29T05:22:03;9.40;99.90
22682;DHT22;11508;50.856;4.380;2022-09-29T05:24:28;9.40;99.90
22682;DHT22;11508;50.856;4.380;2022-09-29T05:26:54;9.30;99.90
22682;DHT22;11508;50.856;4.380;2022-09-29T05:29:20;9.50;99.90
22682;DHT22;11508;50.856;4.380;2022-09-29T05:31:48;9.50;99.90
22682;DHT22;11508;50.856;4.380;2022-09-29T05:34:14;9.60;99.90
22682;DHT22;11508;50.856;4.380;2022-09-29T05:36:39;9.60;99.90
22682;DHT22;11508;50.856;4.380;2022-09-29T05:39:05;9.60;99.90
22682;DHT22;11508;50.856;4.380;2022-09-29T05:41:31;9.70;99.90
22682;DHT22;11508;50.856;4.380;2022-09-29T05:43:57;9.80;99.90
22682;DHT22;11508;50.856;4.380;2022-09-29T05:46:23;9.70;99.90
22682;DHT22;11508;50.856;4.380;2022-09-29T05:48:49;9.60;99.90
22682;DHT22;11508;50.856;4.380;2022-09-29T05:51:20;9.60;99.90
22682;DHT22;11508;50.856;4.380;2022-09-29T05:53:46;9.60;99.90
22682;DHT22;11508;50.856;4.380;2022-09-29T05:56:18;9.60;99.90
22682;DHT22;11508;50.856;4.380;2022-09-29T05:58:44;9.70;99.90
22682;DHT22;11508;50.856;4.380;2022-09-29T06:01:13;9.70;99.90
22682;DHT22;11508;50.856;4.380;2022-09-29T06:03:39;9.70;99.90
22682;DHT22;11508;50.856;4.380;2022-09-29T06:06:10;9.70;99.90
22682;DHT22;11508;50.856;4.380;2022-09-29T06:08:36;9.80;99.90
22682;DHT22;11508;50.856;4.380;2022-09-29T06:11:13;9.90;99.90
22682;DHT22;11508;50.856;4.380;2022-09-29T06:13:41;10.00;99.90
22682;DHT22;11508;50.856;4.380;2022-09-29T06:16:08;10.10;99.90
22682;DHT22;11508;50.856;4.380;2022-09-29T06:18:34;10.10;99.90
22682;DHT22;11508;50.856;4.380;2022-09-29T06:21:11;10.20;99.90
22682;DHT22;11508;50.856;4.380;2022-09-29T06:23:37;10.20;99.70
22682;DHT22;11508;50.856;4.380;2022-09-29T06:26:08;10.20;99.60
22682;DHT22;11508;50.856;4.380;2022-09-29T06:28:34;10.10;99.90
22682;DHT22;11508;50.856;4.380;2022-09-29T06:31:03;10.00;99.90
22682;DHT22;11508;50.856;4.380;2022-09-29T06:33:32;10.00;99.90
22682;DHT22;11508;50.856;4.380;2022-09-29T06:36:46;10.00;99.90
22682;DHT22;11508;50.856;4.380;2022-09-29T06:39:06;10.10;99.90
22682;DHT22;11508;50.856;4.380;2022-09-29T06:41:33;10.10;99.90
22682;DHT22;11508;50.856;4.380;2022-09-29T06:43:59;10.20;99.90
22682;DHT22;11508;50.856;4.380;2022-09-29T06:46:25;10.10;99.30
22682;DHT22;11508;50.856;4.380;2022-09-29T06:48:52;10.10;99.90
22682;DHT22;11508;50.856;4.380;2022-09-29T06:51:18;10.20;99.90
22682;DHT22;11508;50.856;4.380;2022-09-29T06:53:47;10.20;99.80
22682;DHT22;11508;50.856;4.380;2022-09-29T06:56:13;10.30;99.00
22682;DHT22;11508;50.856;4.380;2022-09-29T06:58:39;10.30;99.20
22682;DHT22;11508;50.856;4.380;2022-09-29T07:01:06;10.40;98.20
22682;DHT22;11508;50.856;4.380;2022-09-29T07:03:32;10.30;99.90
22682;DHT22;11508;50.856;4.380;2022-09-29T07:06:02;10.50;98.20
22682;DHT22;11508;50.856;4.380;2022-09-29T07:08:28;10.70;97.60
22682;DHT22;11508;50.856;4.380;2022-09-29T07:10:55;10.90;95.90
22682;DHT22;11508;50.856;4.380;2022-09-29T07:13:21;11.10;93.20
22682;DHT22;11508;50.856;4.380;2022-09-29T07:15:47;10.80;91.00
22682;DHT22;11508;50.856;4.380;2022-09-29T07:18:13;10.60;94.30
22682;DHT22;11508;50.856;4.380;2022-09-29T07:20:39;10.60;97.50
22682;DHT22;11508;50.856;4.380;2022-09-29T07:23:05;10.60;96.60
22682;DHT22;11508;50.856;4.380;2022-09-29T07:25:33;10.70;95.80
22682;DHT22;11508;50.856;4.380;2022-09-29T07:27:59;10.70;92.70
22682;DHT22;11508;50.856;4.380;2022-09-29T07:30:25;10.60;93.00
22682;DHT22;11508;50.856;4.380;2022-09-29T07:32:54;10.30;96.60
22682;DHT22;11508;50.856;4.380;2022-09-29T07:35:21;10.20;98.80
22682;DHT22;11508;50.856;4.380;2022-09-29T07:37:51;10.10;99.90
22682;DHT22;11508;50.856;4.380;2022-09-29T07:40:17;10.00;99.90
22682;DHT22;11508;50.856;4.380;2022-09-29T07:42:43;10.10;99.90
22682;DHT22;11508;50.856;4.380;2022-09-29T07:45:08;10.10;99.90
22682;DHT22;11508;50.856;4.380;2022-09-29T07:47:34;10.10;99.90
22682;DHT22;11508;50.856;4.380;2022-09-29T07:50:00;10.20;99.90
22682;DHT22;11508;50.856;4.380;2022-09-29T07:52:26;10.20;99.90
22682;DHT22;11508;50.856;4.380;2022-09-29T07:54:51;10.40;99.10
22682;DHT22;11508;50.856;4.380;2022-09-29T07:57:17;10.60;97.60
22682;DHT22;11508;50.856;4.380;2022-09-29T07:59:43;10.50;96.80
22682;DHT22;11508;50.856;4.380;2022-09-29T08:02:09;10.50;97.80
22682;DHT22;11508;50.856;4.380;2022-09-29T08:04:35;10.50;98.80
22682;DHT22;11508;50.856;4.380;2022-09-29T08:07:01;10.70;96.00
22682;DHT22;11508;50.856;4.380;2022-09-29T08:09:26;10.80;95.80
22682;DHT22;11508;50.856;4.380;2022-09-29T08:11:52;11.00;93.30
22682;DHT22;11508;50.856;4.380;2022-09-29T08:14:18;11.00;92.60
22682;DHT22;11508;50.856;4.380;2022-09-29T08:16:44;10.80;92.20
22682;DHT22;11508;50.856;4.380;2022-09-29T08:19:09;10.70;95.60
22682;DHT22;11508;50.856;4.380;2022-09-29T08:21:35;10.60;95.20
22682;DHT22;11508;50.856;4.380;2022-09-29T08:24:02;10.60;96.40
22682;DHT22;11508;50.856;4.380;2022-09-29T08:26:34;10.80;95.20
22682;DHT22;11508;50.856;4.380;2022-09-29T08:29:01;10.80;95.10
22682;DHT22;11508;50.856;4.380;2022-09-29T08:31:27;11.00;95.00
22682;DHT22;11508;50.856;4.380;2022-09-29T08:33:55;11.20;93.70
22682;DHT22;11508;50.856;4.380;2022-09-29T08:36:23;11.40;90.40
22682;DHT22;11508;50.856;4.380;2022-09-29T08:38:51;11.40;86.80
22682;DHT22;11508;50.856;4.380;2022-09-29T08:44:18;11.60;86.50
22682;DHT22;11508;50.856;4.380;2022-09-29T08:46:50;11.60;83.50
22682;DHT22;11508;50.856;4.380;2022-09-29T08:49:23;11.70;84.20
22682;DHT22;11508;50.856;4.380;2022-09-29T08:51:56;11.70;80.90
22682;DHT22;11508;50.856;4.380;2022-09-29T08:54:38;11.80;79.00
22682;DHT22;11508;50.856;4.380;2022-09-29T08:57:06;11.80;75.90
22682;DHT22;11508;50.856;4.380;2022-09-29T08:59:40;11.80;74.20
22682;DHT22;11508;50.856;4.380;2022-09-29T09:03:07;11.70;77.40
22682;DHT22;11508;50.856;4.380;2022-09-29T09:10:42;12.00;71.00
22682;DHT22;11508;50.856;4.380;2022-09-29T09:24:40;12.40;61.60
22682;DHT22;11508;50.856;4.380;2022-09-29T09:27:14;12.50;57.40
22682;DHT22;11508;50.856;4.380;2022-09-29T09:29:43;12.70;57.30
22682;DHT22;11508;50.856;4.380;2022-09-29T09:32:17;12.80;56.00
22682;DHT22;11508;50.856;4.380;2022-09-29T09:37:31;12.90;50.90
22682;DHT22;11508;50.856;4.380;2022-09-29T09:42:38;13.30;40.60
22682;DHT22;11508;50.856;4.380;2022-09-29T09:48:04;13.20;37.20
22682;DHT22;11508;50.856;4.380;2022-09-29T09:50:34;13.70;55.70
22682;DHT22;11508;50.856;4.380;2022-09-29T09:53:14;13.50;99.90
22682;DHT22;11508;50.856;4.380;2022-09-29T09:56:03;13.60;99.90
22682;DHT22;11508;50.856;4.380;2022-09-29T10:01:04;13.80;99.90
22682;DHT22;11508;50.856;4.380;2022-09-29T10:03:36;13.90;99.90
22682;DHT22;11508;50.856;4.380;2022-09-29T10:06:05;14.10;99.90
22682;DHT22;11508;50.856;4.380;2022-09-29T10:08:33;14.10;99.90
22682;DHT22;11508;50.856;4.380;2022-09-29T10:13:44;14.40;99.90
22682;DHT22;11508;50.856;4.380;2022-09-29T10:16:45;14.00;99.90
22682;DHT22;11508;50.856;4.380;2022-09-29T10:19:09;14.20;99.90
22682;DHT22;11508;50.856;4.380;2022-09-29T10:21:43;14.50;99.90
22682;DHT22;11508;50.856;4.380;2022-09-29T10:26:51;14.50;99.90
22682;DHT22;11508;50.856;4.380;2022-09-29T10:29:40;14.80;99.90
22682;DHT22;11508;50.856;4.380;2022-09-29T10:32:24;14.90;99.90
22682;DHT22;11508;50.856;4.380;2022-09-29T10:35:00;15.30;99.90
22682;DHT22;11508;50.856;4.380;2022-09-29T10:37:33;15.10;99.90
22682;DHT22;11508;50.856;4.380;2022-09-29T10:42:42;17.30;99.90
22682;DHT22;11508;50.856;4.380;2022-09-29T10:45:11;17.60;99.90
22682;DHT22;11508;50.856;4.380;2022-09-29T10:47:39;18.70;99.90
22682;DHT22;11508;50.856;4.380;2022-09-29T10:50:23;19.40;99.90
22682;DHT22;11508;50.856;4.380;2022-09-29T10:52:50;20.40;99.40
22682;DHT22;11508;50.856;4.380;2022-09-29T10:55:25;19.60;97.00
22682;DHT22;11508;50.856;4.380;2022-09-29T10:57:53;19.40;98.70
22682;DHT22;11508;50.856;4.380;2022-09-29T11:00:35;19.20;97.00
22682;DHT22;11508;50.856;4.380;2022-09-29T11:06:02;18.20;99.70
22682;DHT22;11508;50.856;4.380;2022-09-29T11:08:29;18.80;99.20
22682;DHT22;11508;50.856;4.380;2022-09-29T11:11:16;20.20;95.80
22682;DHT22;11508;50.856;4.380;2022-09-29T11:13:45;20.50;93.30
22682;DHT22;11508;50.856;4.380;2022-09-29T11:16:15;21.50;92.60
22682;DHT22;11508;50.856;4.380;2022-09-29T11:18:44;22.00;87.70
22682;DHT22;11508;50.856;4.380;2022-09-29T11:23:59;20.60;66.40
22682;DHT22;11508;50.856;4.380;2022-09-29T11:26:45;18.50;22.80
22682;DHT22;11508;50.856;4.380;2022-09-29T11:43:41;21.00;1.00
22682;DHT22;11508;50.856;4.380;2022-09-29T11:46:30;20.80;1.00
22682;DHT22;11508;50.856;4.380;2022-09-29T11:49:14;20.50;1.00
22682;DHT22;11508;50.856;4.380;2022-09-29T11:51:53;19.90;1.00
22682;DHT22;11508;50.856;4.380;2022-09-29T11:57:24;18.40;1.00
22682;DHT22;11508;50.856;4.380;2022-09-29T12:00:10;18.30;99.90
22682;DHT22;11508;50.856;4.380;2022-09-29T12:03:15;18.30;99.90
22682;DHT22;11508;50.856;4.380;2022-09-29T12:06:12;17.70;99.90
22682;DHT22;11508;50.856;4.380;2022-09-29T12:11:32;17.60;99.90
22682;DHT22;11508;50.856;4.380;2022-09-29T12:17:16;17.60;99.90
22682;DHT22;11508;50.856;4.380;2022-09-29T12:20:03;17.50;99.90
22682;DHT22;11508;50.856;4.380;2022-09-29T12:22:30;17.20;99.90
22682;DHT22;11508;50.856;4.380;2022-09-29T12:24:58;17.10;99.90
22682;DHT22;11508;50.856;4.380;2022-09-29T12:27:27;17.10;99.90
22682;DHT22;11508;50.856;4.380;2022-09-29T12:30:04;17.20;99.90
22682;DHT22;11508;50.856;4.380;2022-09-29T12:32:43;17.40;99.90
22682;DHT22;11508;50.856;4.380;2022-09-29T12:35:28;17.40;99.90
22682;DHT22;11508;50.856;4.380;2022-09-29T12:43:33;16.80;1.00
22682;DHT22;11508;50.856;4.380;2022-09-29T12:46:08;16.70;1.00
22682;DHT22;11508;50.856;4.380;2022-09-29T12:51:28;16.50;1.00
22682;DHT22;11508;50.856;4.380;2022-09-29T12:54:22;16.30;1.00
22682;DHT22;11508;50.856;4.380;2022-09-29T12:56:52;16.20;1.00
22682;DHT22;11508;50.856;4.380;2022-09-29T13:16:05;16.80;99.90
22682;DHT22;11508;50.856;4.380;2022-09-29T13:18:40;16.60;1.00
22682;DHT22;11508;50.856;4.380;2022-09-29T13:29:48;16.30;1.00
22682;DHT22;11508;50.856;4.380;2022-09-29T13:32:15;16.30;1.00
22682;DHT22;11508;50.856;4.380;2022-09-29T13:34:47;16.10;1.00
22682;DHT22;11508;50.856;4.380;2022-09-29T13:37:19;16.50;1.00
22682;DHT22;11508;50.856;4.380;2022-09-29T13:40:01;16.90;1.00
22682;DHT22;11508;50.856;4.380;2022-09-29T13:42:38;17.00;99.90
22682;DHT22;11508;50.856;4.380;2022-09-29T13:47:49;16.50;99.90
22682;DHT22;11508;50.856;4.380;2022-09-29T13:50:41;16.60;99.90
22682;DHT22;11508;50.856;4.380;2022-09-29T13:58:35;17.20;1.00
22682;DHT22;11508;50.856;4.380;2022-09-29T14:01:06;17.30;99.90
22682;DHT22;11508;50.856;4.380;2022-09-29T14:03:42;17.10;99.90
22682;DHT22;11508;50.856;4.380;2022-09-29T14:06:21;17.10;99.90
22682;DHT22;11508;50.856;4.380;2022-09-29T14:09:04;17.10;99.90
22682;DHT22;11508;50.856;4.380;2022-09-29T14:11:47;16.80;99.90
22682;DHT22;11508;50.856;4.380;2022-09-29T14:14:23;16.70;99.90
22682;DHT22;11508;50.856;4.380;2022-09-29T14:27:45;17.20;99.90
22682;DHT22;11508;50.856;4.380;2022-09-29T14:33:00;16.80;99.90
22682;DHT22;11508;50.856;4.380;2022-09-29T14:35:32;16.70;99.90
22682;DHT22;11508;50.856;4.380;2022-09-29T14:38:10;16.90;99.90
22682;DHT22;11508;50.856;4.380;2022-09-29T14:40:38;16.90;99.90
22682;DHT22;11508;50.856;4.380;2022-09-29T14:43:14;17.00;99.90
22682;DHT22;11508;50.856;4.380;2022-09-29T14:49:00;16.80;99.90
22682;DHT22;11508;50.856;4.380;2022-09-29T14:52:19;16.90;99.90
22682;DHT22;11508;50.856;4.380;2022-09-29T14:55:09;17.00;99.90
22682;DHT22;11508;50.856;4.380;2022-09-29T14:57:46;17.00;99.90
22682;DHT22;11508;50.856;4.380;2022-09-29T15:00:21;17.00;99.90
22682;DHT22;11508;50.856;4.380;2022-09-29T15:02:53;17.10;99.90
22682;DHT22;11508;50.856;4.380;2022-09-29T15:05:40;17.20;99.90
22682;DHT22;11508;50.856;4.380;2022-09-29T15:08:29;17.00;99.90
22682;DHT22;11508;50.856;4.380;2022-09-29T15:11:01;17.10;99.90
22682;DHT22;11508;50.856;4.380;2022-09-29T15:13:28;17.20;99.90
22682;DHT22;11508;50.856;4.380;2022-09-29T15:24:27;17.00;99.90
22682;DHT22;11508;50.856;4.380;2022-09-29T15:27:03;17.00;99.90
22682;DHT22;11508;50.856;4.380;2022-09-29T15:29:30;16.90;1.00
22682;DHT22;11508;50.856;4.380;2022-09-29T15:31:56;16.80;1.00
22682;DHT22;11508;50.856;4.380;2022-09-29T15:34:24;16.90;1.00
22682;DHT22;11508;50.856;4.380;2022-09-29T15:36:51;17.00;1.00
22682;DHT22;11508;50.856;4.380;2022-09-29T15:42:01;16.50;1.00
22682;DHT22;11508;50.856;4.380;2022-09-29T15:44:28;16.50;1.00
22682;DHT22;11508;50.856;4.380;2022-09-29T15:46:58;16.60;1.00
22682;DHT22;11508;50.856;4.380;2022-09-29T15:49:26;16.70;1.00
22682;DHT22;11508;50.856;4.380;2022-09-29T15:54:22;16.70;1.00
22682;DHT22;11508;50.856;4.380;2022-09-29T15:56:48;16.70;1.00
22682;DHT22;11508;50.856;4.380;2022-09-29T15:59:47;16.60;1.00
22682;DHT22;11508;50.856;4.380;2022-09-29T16:04:54;16.60;1.00
22682;DHT22;11508;50.856;4.380;2022-09-29T16:07:25;16.50;1.00
22682;DHT22;11508;50.856;4.380;2022-09-29T16:09:58;16.50;1.00
22682;DHT22;11508;50.856;4.380;2022-09-29T16:12:25;16.40;1.00
22682;DHT22;11508;50.856;4.380;2022-09-29T16:14:54;16.10;1.00
22682;DHT22;11508;50.856;4.380;2022-09-29T16:17:20;16.00;1.00
22682;DHT22;11508;50.856;4.380;2022-09-29T16:19:47;16.00;1.00
22682;DHT22;11508;50.856;4.380;2022-09-29T16:22:22;15.90;1.00
22682;DHT22;11508;50.856;4.380;2022-09-29T16:27:52;15.20;11.30
22682;DHT22;11508;50.856;4.380;2022-09-29T16:30:30;15.00;23.90
22682;DHT22;11508;50.856;4.380;2022-09-29T16:33:11;15.30;15.70
22682;DHT22;11508;50.856;4.380;2022-09-29T16:35:42;15.40;11.20
22682;DHT22;11508;50.856;4.380;2022-09-29T16:38:18;15.50;5.40
22682;DHT22;11508;50.856;4.380;2022-09-29T16:40:46;15.60;7.00
22682;DHT22;11508;50.856;4.380;2022-09-29T16:43:29;15.50;10.50
22682;DHT22;11508;50.856;4.380;2022-09-29T16:46:00;15.50;14.80
22682;DHT22;11508;50.856;4.380;2022-09-29T16:48:37;15.60;12.20
22682;DHT22;11508;50.856;4.380;2022-09-29T16:51:11;15.80;9.90
22682;DHT22;11508;50.856;4.380;2022-09-29T16:53:38;15.80;5.70
22682;DHT22;11508;50.856;4.380;2022-09-29T16:56:25;15.60;9.30
22682;DHT22;11508;50.856;4.380;2022-09-29T17:01:42;15.50;13.70
22682;DHT22;11508;50.856;4.380;2022-09-29T17:04:09;15.50;21.10
22682;DHT22;11508;50.856;4.380;2022-09-29T17:06:36;15.40;25.40
22682;DHT22;11508;50.856;4.380;2022-09-29T17:09:03;15.20;19.30
22682;DHT22;11508;50.856;4.380;2022-09-29T17:11:29;15.10;23.50
22682;DHT22;11508;50.856;4.380;2022-09-29T17:13:55;14.70;26.80
22682;DHT22;11508;50.856;4.380;2022-09-29T17:16:22;14.40;43.30
22682;DHT22;11508;50.856;4.380;2022-09-29T17:18:50;14.50;42.40
22682;DHT22;11508;50.856;4.380;2022-09-29T17:21:17;14.50;41.20
22682;DHT22;11508;50.856;4.380;2022-09-29T17:23:43;14.60;39.10
22682;DHT22;11508;50.856;4.380;2022-09-29T17:26:25;14.70;37.10
22682;DHT22;11508;50.856;4.380;2022-09-29T17:29:15;14.80;35.20
22682;DHT22;11508;50.856;4.380;2022-09-29T17:31:41;14.80;39.50
22682;DHT22;11508;50.856;4.380;2022-09-29T17:34:07;14.80;32.60
22682;DHT22;11508;50.856;4.380;2022-09-29T17:36:33;14.80;31.30
22682;DHT22;11508;50.856;4.380;2022-09-29T17:38:59;14.90;32.40
22682;DHT22;11508;50.856;4.380;2022-09-29T17:41:24;14.90;28.30
22682;DHT22;11508;50.856;4.380;2022-09-29T17:43:51;14.90;29.40
22682;DHT22;11508;50.856;4.380;2022-09-29T17:46:17;15.00;24.50
22682;DHT22;11508;50.856;4.380;2022-09-29T17:48:42;15.10;22.60
22682;DHT22;11508;50.856;4.380;2022-09-29T17:51:11;14.90;23.10
22682;DHT22;11508;50.856;4.380;2022-09-29T17:53:38;14.90;26.80
22682;DHT22;11508;50.856;4.380;2022-09-29T17:56:04;14.70;27.70
22682;DHT22;11508;50.856;4.380;2022-09-29T17:58:30;14.20;47.70
22682;DHT22;11508;50.856;4.380;2022-09-29T18:00:56;14.20;49.90
22682;DHT22;11508;50.856;4.380;2022-09-29T18:03:22;14.30;48.80
22682;DHT22;11508;50.856;4.380;2022-09-29T18:05:53;14.40;45.00
22682;DHT22;11508;50.856;4.380;2022-09-29T18:08:25;14.50;44.80
22682;DHT22;11508;50.856;4.380;2022-09-29T18:11:00;14.40;39.90
22682;DHT22;11508;50.856;4.380;2022-09-29T18:13:28;14.20;46.00
22682;DHT22;11508;50.856;4.380;2022-09-29T18:15:57;14.20;48.20
22682;DHT22;11508;50.856;4.380;2022-09-29T18:18:24;14.20;45.30
22682;DHT22;11508;50.856;4.380;2022-09-29T18:20:49;13.70;52.70
22682;DHT22;11508;50.856;4.380;2022-09-29T18:23:19;13.50;58.80
22682;DHT22;11508;50.856;4.380;2022-09-29T18:25:48;13.70;57.40
22682;DHT22;11508;50.856;4.380;2022-09-29T18:28:15;13.70;50.40
22682;DHT22;11508;50.856;4.380;2022-09-29T18:30:42;13.60;54.60
22682;DHT22;11508;50.856;4.380;2022-09-29T18:33:11;13.70;53.80
22682;DHT22;11508;50.856;4.380;2022-09-29T18:35:40;13.80;47.10
22682;DHT22;11508;50.856;4.380;2022-09-29T18:38:06;14.00;45.20
22682;DHT22;11508;50.856;4.380;2022-09-29T18:40:33;13.90;44.60
22682;DHT22;11508;50.856;4.380;2022-09-29T18:42:59;14.00;44.50
22682;DHT22;11508;50.856;4.380;2022-09-29T18:45:30;14.00;42.60
22682;DHT22;11508;50.856;4.380;2022-09-29T18:47:58;14.10;41.20
22682;DHT22;11508;50.856;4.380;2022-09-29T18:50:29;14.00;38.10
22682;DHT22;11508;50.856;4.380;2022-09-29T18:52:56;14.00;38.50
22682;DHT22;11508;50.856;4.380;2022-09-29T18:55:26;14.00;36.20
22682;DHT22;11508;50.856;4.380;2022-09-29T18:57:53;14.10;35.70
22682;DHT22;11508;50.856;4.380;2022-09-29T19:00:22;14.00;30.40
22682;DHT22;11508;50.856;4.380;2022-09-29T19:02:49;14.00;28.60
22682;DHT22;11508;50.856;4.380;2022-09-29T19:05:18;14.00;32.90